Time;durP1;ratioP1;P1;durP2;ratioP2;P2;SDS_P1;SDS_P2;PMS_P1;PMS_P2;Temp;Humidity;BMP_temperature;BMP_pressure;BME280_temperature;BME280_humidity;BME280_pressure;Samples;Min_cycle;Max_cycle;Signal;HPM_P1;HPM_P2
2022/04/30 17:39:09;;;;;;;7.85;2.90;;;;;;;17.95;32.90;98916.38;4486465;32;20118;-87
2022/04/30 17:41:35;;;;;;;8.55;3.22;;;;;;;18.44;31.67;98912.22;4504049;31;20152;-87
2022/04/30 17:44:03;;;;;;;9.27;2.80;;;;;;;18.74;30.97;98918.59;4487755;31;20112;-86
2022/04/30 17:46:30;;;;;;;8.63;3.22;;;;;;;18.96;30.47;98914.94;4500329;31;20427;-87
2022/04/30 17:48:55;;;;;;;7.73;2.80;;;;;;;19.05;30.19;98908.78;4495116;32;20436;-85
2022/04/30 17:51:21;;;;;;;8.18;2.65;;;;;;;19.15;29.88;98914.16;4505894;31;20125;-87
2022/04/30 17:53:47;;;;;;;11.82;2.92;;;;;;;19.25;29.77;98919.53;4503542;31;20104;-87
2022/04/30 17:56:12;;;;;;;47.17;6.57;;;;;;;19.31;29.59;98916.31;4511741;31;20060;-88
2022/04/30 17:58:38;;;;;;;12.00;3.15;;;;;;;19.33;29.98;98918.84;4501858;31;20118;-90
2022/04/30 18:01:03;;;;;;;10.10;3.58;;;;;;;19.41;31.19;98921.69;4494124;32;20112;-88
2022/04/30 18:03:29;;;;;;;10.57;3.47;;;;;;;19.14;30.50;98932.97;4507575;31;20100;-93
2022/04/30 18:05:54;;;;;;;9.10;3.22;;;;;;;19.32;30.67;98933.22;4503101;31;20088;-90
2022/04/30 18:08:19;;;;;;;8.32;3.30;;;;;;;19.15;30.90;98926.69;4511901;31;20106;-85
2022/04/30 18:10:45;;;;;;;9.60;3.58;;;;;;;19.37;31.22;98933.63;4502156;31;20084;-89
2022/04/30 18:13:13;;;;;;;12.37;3.80;;;;;;;19.35;32.00;98932.91;4493770;32;20112;-88
2022/04/30 18:15:38;;;;;;;;;;;;;;;19.34;31.65;98937.44;4494120;31;20104;-89
2022/04/30 18:18:04;;;;;;;10.65;4.72;;;;;;;19.38;31.11;98935.34;4511959;31;19971;-88
2022/04/30 18:20:35;;;;;;;11.10;3.75;;;;;;;19.28;31.54;98935.31;4500857;31;20169;-84
2022/04/30 18:23:01;;;;;;;9.60;3.25;;;;;;;19.22;32.22;98941.19;4508268;31;20116;-85
2022/04/30 18:25:26;;;;;;;8.68;3.53;;;;;;;19.22;32.42;98949.19;4506323;31;20371;-85
2022/04/30 18:27:53;;;;;;;9.02;3.40;;;;;;;19.22;32.21;98951.88;4488424;32;20131;-84
2022/04/30 18:30:21;;;;;;;8.35;3.30;;;;;;;19.24;32.35;98956.09;4496820;31;20111;-86
2022/04/30 18:32:47;;;;;;;10.05;4.03;;;;;;;19.22;32.36;98954.53;4501797;31;20092;-83
2022/04/30 18:35:12;;;;;;;9.45;3.83;;;;;;;19.20;32.42;98956.47;4507129;31;20088;-91
2022/04/30 18:37:37;;;;;;;10.27;3.50;;;;;;;19.20;32.41;98959.16;4507273;31;20134;-82
2022/04/30 18:40:04;;;;;;;9.77;3.90;;;;;;;19.22;32.23;98954.53;4504549;31;20072;-88
2022/04/30 18:42:29;;;;;;;10.45;3.55;;;;;;;19.24;32.33;98957.91;4506407;31;20112;-86
2022/04/30 18:44:55;;;;;;;9.57;3.60;;;;;;;19.31;31.42;98960.88;4490101;31;20084;-91
2022/04/30 18:47:20;;;;;;;9.25;3.67;;;;;;;19.33;31.36;98956.25;4500163;31;20118;-89
2022/04/30 18:49:46;;;;;;;8.25;3.30;;;;;;;19.38;31.42;98956.69;4492382;31;20096;-88
2022/04/30 18:52:11;;;;;;;9.32;3.53;;;;;;;19.34;31.48;98963.31;4480424;31;20101;-89
2022/04/30 19:02:53;;;;;;;10.05;3.40;;;;;;;19.28;31.62;98975.38;4482314;31;20249;-89
2022/04/30 19:05:20;;;;;;;9.40;3.70;;;;;;;19.21;31.69;98983.06;4493171;31;20163;-89
2022/04/30 19:07:46;;;;;;;10.05;3.80;;;;;;;19.03;31.66;98992.69;4494466;31;20116;-90
2022/04/30 19:10:12;;;;;;;10.55;4.15;;;;;;;19.08;31.86;98987.78;4479221;31;20231;-89
2022/04/30 19:12:37;;;;;;;10.48;3.60;;;;;;;19.11;31.89;98994.69;4493197;31;20506;-89
2022/04/30 19:15:03;;;;;;;9.00;3.85;;;;;;;18.95;31.76;98995.16;4494290;31;20138;-90
2022/04/30 19:17:29;;;;;;;10.40;3.90;;;;;;;18.93;32.29;98997.09;4494367;31;20455;-87
2022/04/30 19:19:55;;;;;;;10.18;4.00;;;;;;;18.79;32.31;98991.09;4491563;31;20118;-85
2022/04/30 19:22:20;;;;;;;10.82;4.10;;;;;;;18.82;32.43;98992.69;4500195;31;20119;-86
2022/04/30 19:24:46;;;;;;;11.40;4.22;;;;;;;18.89;32.15;98990.34;4491107;31;20088;-88
2022/04/30 19:27:11;;;;;;;8.50;3.83;;;;;;;18.81;31.93;98994.53;4481921;32;20111;-89
2022/04/30 19:29:37;;;;;;;9.82;4.10;;;;;;;18.85;32.15;98992.41;4496518;31;20110;-89
2022/04/30 19:32:03;;;;;;;10.00;4.25;;;;;;;18.81;32.06;98988.31;4490304;31;20100;-90
2022/04/30 19:34:29;;;;;;;9.88;4.55;;;;;;;18.78;32.28;98988.56;4472521;31;20465;-88
2022/04/30 19:36:55;;;;;;;11.00;4.22;;;;;;;18.82;32.45;98990.03;4477762;31;20106;-88
2022/04/30 19:39:22;;;;;;;10.05;4.07;;;;;;;18.77;32.78;98992.19;4495027;31;20151;-88
2022/04/30 19:41:49;;;;;;;13.52;4.03;;;;;;;18.78;32.82;98993.91;4483429;31;20104;-87
2022/04/30 19:44:14;;;;;;;10.25;4.03;;;;;;;18.69;33.08;98995.53;4489792;31;20109;-86
2022/04/30 19:46:40;;;;;;;8.75;3.67;;;;;;;18.68;33.13;98996.53;4485195;32;20115;-89
2022/04/30 19:49:05;;;;;;;10.38;4.32;;;;;;;18.66;33.11;98998.47;4492935;31;20087;-89
2022/04/30 19:51:31;;;;;;;10.18;4.20;;;;;;;18.63;33.24;98999.56;4493593;31;20088;-89
2022/04/30 19:53:57;;;;;;;11.60;4.28;;;;;;;18.65;33.32;99005.59;4498613;31;20387;-88
2022/04/30 19:56:22;;;;;;;11.07;3.95;;;;;;;18.56;33.48;99001.06;4474132;31;20227;-89
2022/04/30 19:58:48;;;;;;;10.50;4.07;;;;;;;18.57;33.59;98993.91;4484247;32;20158;-90
2022/04/30 20:01:13;;;;;;;11.00;4.15;;;;;;;18.51;33.78;98997.94;4479516;31;20096;-88
2022/04/30 20:03:39;;;;;;;10.85;3.95;;;;;;;18.54;33.61;99000.31;4493006;31;20114;-90
2022/04/30 20:06:09;;;;;;;10.63;4.20;;;;;;;18.60;33.49;99002.50;4485037;31;20139;-89
2022/04/30 20:08:35;;;;;;;10.10;4.10;;;;;;;18.56;33.62;99005.53;4489534;31;20453;-90
2022/04/30 20:19:12;;;;;;;9.70;4.05;;;;;;;18.65;33.38;98989.59;4495968;31;20122;-86
2022/04/30 20:21:38;;;;;;;10.23;3.58;;;;;;;18.71;33.10;98998.06;4481916;31;20531;-91
2022/04/30 20:24:04;;;;;;;11.05;4.25;;;;;;;18.77;32.92;98992.19;4490104;31;20114;-90
2022/04/30 20:26:30;;;;;;;10.52;3.60;;;;;;;18.86;32.70;98989.63;4499687;31;20141;-88
2022/04/30 20:28:55;;;;;;;10.25;3.83;;;;;;;18.84;32.67;98993.41;4475929;31;20180;-86
2022/04/30 20:36:49;;;;;;;10.65;4.05;;;;;;;18.97;32.26;98990.53;4486246;32;20106;-87
2022/04/30 20:39:16;;;;;;;10.52;3.67;;;;;;;18.97;32.11;98991.38;4486603;31;20107;-87
2022/04/30 20:41:41;;;;;;;8.43;3.50;;;;;;;18.96;32.17;98992.34;4495070;31;20167;-87
2022/04/30 20:44:10;;;;;;;8.60;3.17;;;;;;;19.01;32.05;98989.31;4474483;32;20111;-88
2022/04/30 20:46:36;;;;;;;9.20;3.53;;;;;;;19.04;31.98;98987.22;4486629;32;20136;-88
2022/04/30 20:49:04;;;;;;;9.00;3.35;;;;;;;19.03;31.93;98996.19;4482703;32;20151;-86
2022/04/30 20:51:32;;;;;;;;;;;;;;;19.04;31.89;98991.69;4495722;31;20114;-87
2022/04/30 20:53:59;;;;;;;10.38;3.97;;;;;;;19.19;31.75;98986.84;4490923;31;19980;-87
2022/04/30 20:56:25;;;;;;;8.73;3.50;;;;;;;19.10;31.84;98993.81;4499814;31;20091;-88
2022/04/30 20:58:54;;;;;;;9.05;3.37;;;;;;;19.10;31.91;98987.63;4476865;31;20106;-86
2022/04/30 21:01:20;;;;;;;8.38;3.62;;;;;;;19.08;32.07;98989.59;4494603;31;20367;-87
2022/04/30 21:03:46;;;;;;;10.07;3.37;;;;;;;18.97;32.30;98990.53;4496932;31;20124;-87
2022/04/30 21:06:11;;;;;;;7.80;3.40;;;;;;;19.02;32.24;98993.66;4488728;31;20476;-87
2022/04/30 21:08:38;;;;;;;10.75;4.15;;;;;;;19.06;32.23;98987.06;4499252;31;20106;-88
2022/04/30 21:11:04;;;;;;;10.20;4.23;;;;;;;19.11;32.26;98987.50;4492326;31;20749;-86
2022/04/30 21:13:30;;;;;;;9.73;3.80;;;;;;;19.12;32.40;98996.38;4478935;32;20103;-87
2022/04/30 21:15:55;;;;;;;11.25;3.90;;;;;;;19.18;32.04;98995.81;4495730;31;20091;-87
2022/04/30 21:18:21;;;;;;;9.30;3.62;;;;;;;19.20;31.40;99001.87;4484937;31;20109;-86
2022/04/30 21:20:46;;;;;;;10.38;3.70;;;;;;;19.16;31.73;98998.66;4462854;31;20127;-89
2022/04/30 21:23:12;;;;;;;10.15;3.78;;;;;;;19.11;32.07;99000.03;4495296;31;20118;-90
2022/04/30 21:25:38;;;;;;;8.45;3.22;;;;;;;19.12;32.12;98991.84;4495743;31;20534;-89
2022/04/30 21:28:05;;;;;;;9.55;3.87;;;;;;;19.13;32.06;99000.75;4475103;32;20104;-87
2022/04/30 21:30:36;;;;;;;10.37;4.00;;;;;;;19.13;32.03;98985.56;4499215;31;20108;-88
2022/04/30 21:33:02;;;;;;;9.70;4.07;;;;;;;19.16;31.93;98984.44;4477394;31;20119;-88
2022/04/30 21:35:27;;;;;;;10.73;3.95;;;;;;;19.13;31.92;98990.06;4493674;31;20435;-87
2022/04/30 21:37:53;;;;;;;10.50;3.85;;;;;;;19.11;31.92;98998.19;4488451;31;20106;-83
2022/04/30 21:43:04;;;;;;;9.73;4.22;;;;;;;19.12;31.71;98994.53;4484272;32;20138;-89
2022/04/30 21:45:30;;;;;;;11.82;4.47;;;;;;;19.07;31.66;99002.13;4485109;32;20092;-93
2022/04/30 21:47:55;;;;;;;10.77;4.55;;;;;;;19.03;31.65;98993.53;4484697;32;20084;-92
2022/04/30 21:50:21;;;;;;;10.32;3.67;;;;;;;19.05;31.77;98986.22;4485212;32;20460;-93
2022/04/30 21:52:46;;;;;;;11.60;4.32;;;;;;;19.02;32.15;98994.47;4485430;32;20111;-93
2022/04/30 22:01:13;;;;;;;10.07;4.05;;;;;;;18.90;32.48;98990.22;4486486;32;20688;-94
2022/04/30 22:03:39;;;;;;;9.57;3.62;;;;;;;18.97;32.26;98983.38;4459635;32;20076;-92
2022/04/30 22:06:06;;;;;;;9.85;4.10;;;;;;;18.92;32.36;98985.59;4471912;31;20111;-85
2022/04/30 22:08:34;;;;;;;9.00;4.20;;;;;;;18.91;32.50;98983.91;4477899;31;20084;-86
2022/04/30 22:10:59;;;;;;;;;;;;;;;18.95;32.66;98990.66;4494189;31;20143;-85
2022/04/30 22:13:28;;;;;;;8.02;3.42;;;;;;;19.05;32.67;98986.22;4493787;31;20028;-88
2022/04/30 22:15:54;;;;;;;10.80;3.97;;;;;;;18.98;33.07;98985.03;4478287;31;20083;-85
2022/04/30 22:18:20;;;;;;;10.63;4.07;;;;;;;18.94;33.08;98988.97;4493929;31;20430;-91
2022/04/30 22:20:47;;;;;;;10.30;3.72;;;;;;;18.94;33.14;98983.62;4482667;31;20392;-90
2022/04/30 22:23:13;;;;;;;9.48;3.92;;;;;;;18.91;33.31;98986.56;4494785;31;20101;-89
2022/04/30 22:25:38;;;;;;;10.68;4.00;;;;;;;18.92;33.46;98985.59;4481368;31;20134;-85
2022/04/30 22:28:04;;;;;;;11.30;4.10;;;;;;;18.93;33.87;98983.75;4495564;31;20093;-87
2022/04/30 22:30:30;;;;;;;10.10;4.18;;;;;;;18.75;33.56;98986.16;4494286;31;20108;-87
2022/04/30 22:32:55;;;;;;;10.25;4.12;;;;;;;18.85;33.23;98979.06;4481384;31;20104;-87
2022/04/30 22:35:21;;;;;;;9.05;3.70;;;;;;;18.89;33.19;98982.31;4495479;31;20448;-87
2022/04/30 22:37:47;;;;;;;10.35;3.95;;;;;;;18.90;33.33;98981.38;4494771;31;20428;-87
2022/04/30 22:42:56;;;;;;;9.45;3.70;;;;;;;18.85;33.09;98971.94;4494367;31;20130;-87
2022/04/30 22:45:22;;;;;;;9.52;4.05;;;;;;;18.82;33.39;98971.34;4495341;31;20440;-85
2022/04/30 22:47:49;;;;;;;10.73;4.15;;;;;;;18.73;33.42;98978.28;4494476;31;20084;-86
2022/04/30 22:50:15;;;;;;;10.98;3.90;;;;;;;18.76;33.29;98974.50;4493968;31;20130;-85
2022/04/30 22:52:41;;;;;;;9.55;3.67;;;;;;;18.78;33.34;98977.91;4496633;31;20087;-87
2022/04/30 22:55:06;;;;;;;9.90;3.70;;;;;;;18.76;33.27;98980.69;4482487;31;20114;-86
2022/04/30 22:57:32;;;;;;;9.45;3.60;;;;;;;18.77;33.20;98981.53;4494322;31;20139;-87
2022/04/30 22:59:57;;;;;;;9.43;3.83;;;;;;;18.71;33.23;98977.56;4480484;31;20465;-87
2022/04/30 23:02:23;;;;;;;10.93;4.40;;;;;;;18.73;32.93;98972.09;4494963;31;20092;-86
2022/04/30 23:04:48;;;;;;;9.00;3.78;;;;;;;18.67;32.97;98971.63;4496250;31;20127;-86
2022/04/30 23:07:14;;;;;;;9.63;3.95;;;;;;;18.70;32.92;98972.34;4493819;31;20088;-88
2022/04/30 23:09:39;;;;;;;9.20;3.70;;;;;;;18.69;32.97;98973.34;4482044;31;20116;-88
2022/04/30 23:12:07;;;;;;;9.65;3.75;;;;;;;18.68;33.10;98969.84;4494873;31;20091;-85
2022/04/30 23:14:32;;;;;;;11.85;3.50;;;;;;;18.66;32.78;98963.78;4481987;31;20084;-85
2022/04/30 23:16:58;;;;;;;10.80;4.10;;;;;;;18.59;32.96;98965.28;4494995;31;20133;-87
2022/04/30 23:19:24;;;;;;;8.55;3.67;;;;;;;18.64;32.93;98971.06;4495077;31;20134;-85
2022/04/30 23:21:49;;;;;;;10.50;4.00;;;;;;;18.58;32.97;98963.56;4495845;31;20241;-84
2022/04/30 23:24:14;;;;;;;9.27;3.95;;;;;;;18.57;33.11;98964.56;4498957;31;20088;-85
2022/04/30 23:26:40;;;;;;;9.77;3.87;;;;;;;18.64;33.01;98963.06;4503539;31;20091;-85
2022/04/30 23:29:11;;;;;;;9.82;3.70;;;;;;;18.59;33.00;98960.78;4489076;31;20602;-85
2022/04/30 23:31:37;;;;;;;11.65;4.07;;;;;;;18.63;32.96;98959.53;4503454;31;20108;-84
2022/04/30 23:34:02;;;;;;;10.27;3.92;;;;;;;18.62;33.00;98965.00;4503615;31;20434;-85
2022/04/30 23:36:28;;;;;;;9.23;3.60;;;;;;;18.62;33.07;98960.53;4503504;31;20160;-85
2022/04/30 23:38:53;;;;;;;9.35;3.90;;;;;;;18.58;33.07;98953.75;4503588;31;20100;-85
2022/04/30 23:41:19;;;;;;;11.80;4.22;;;;;;;18.59;33.06;98963.44;4503401;31;20092;-85
2022/04/30 23:43:44;;;;;;;9.88;3.90;;;;;;;18.57;33.09;98954.72;4503415;31;20137;-85
2022/04/30 23:46:10;;;;;;;9.63;3.60;;;;;;;18.59;33.04;98955.44;4503199;31;20087;-85
2022/04/30 23:48:35;;;;;;;10.85;3.92;;;;;;;18.62;32.95;98954.31;4488854;31;20108;-85
2022/04/30 23:51:01;;;;;;;10.05;4.10;;;;;;;18.61;32.96;98952.62;4488850;31;20096;-85
2022/04/30 23:53:26;;;;;;;8.88;4.00;;;;;;;18.63;33.04;98964.03;4488705;31;20092;-85
2022/04/30 23:55:51;;;;;;;11.63;3.80;;;;;;;18.56;33.26;98962.84;4488873;31;20091;-84
2022/04/30 23:58:19;;;;;;;9.38;3.70;;;;;;;18.57;33.25;98962.72;4488956;31;20096;-84
